KCGZ/CGZ METAR and TAF weather

Enter ICAO airport designator
Station Type Date Time Source
KCGZ METAR 2018/09/21 22:56 UTC NOAA

KCGZ 212256Z AUTO 25007KT 210V330 10SM CLR 35/17 A2991 RMK AO2 SLP111 T03500167 PNO $


Station Type Date Time Source
KCGZ Decoded METAR 2018/09/21 22:56 UTC NOAA

Casa Grande, Casa Grande Municipal Airport, AZ, United States (KCGZ) 32-57N 111-46W
Sep 21, 2018 - 06:56 PM EDT / 2018.09.21 2256 UTC
Wind: from the WSW (250 degrees) at 8 MPH (7 KT) (direction variable):0
Visibility: 10 mile(s):0
Sky conditions: clear
Temperature: 95.0 F (35.0 C)
Heat index: 95.5 F (35.3 C):1
Dew Point: 62.1 F (16.7 C)
Relative Humidity: 33%
Pressure (altimeter): 29.91 in. Hg (1012 hPa)
ob: KCGZ 212256Z AUTO 25007KT 210V330 10SM CLR 35/17 A2991 RMK AO2 SLP111 T03500167 PNO
cycle: 23

Station Type Date Time Source
KCGZ TAF UTC NOAA

Error!


Example: see airport list